Fallon Colony, Nevada
Current Conditions -  °F | °C
As of 9:56 PM on Tuesday 25 Nov 2014 (Local Time) from KNFL Reporting Station
Clear Clear  
Wind Chill:   Ceiling: Unl
Heat Index:   Visibility: 10mi
Dew Point: -9°   Wind: 0mph
Humidity: 50%   Direction: NA
Pressure: 30.44"   Gusts: NA
Location:  39.5809°N, 118.333°W
Report Text: KNFL 260556Z 00000KT 10SM CLR 01/M09 A3044 RMK AO2 PK WND 15037/0459 SLP262 T00061089 10150 21006 50004
Loading
Personal Weather Stations






























Interactive Weather Map New forecast layout! Learn more

10-Day Weather Forecast

Advertisements
Track Severe Weather on mobile